sensor_id;sensor_type;location;lat;lon;timestamp;P1;durP1;ratioP1;P2;durP2;ratioP2
39994;SDS011;25686;51.908;10.418;2023-04-26T00:01:01;15.00;;;2.27;;
39994;SDS011;25686;51.908;10.418;2023-04-26T00:03:06;8.33;;;2.03;;
39994;SDS011;25686;51.908;10.418;2023-04-26T00:05:07;9.80;;;2.47;;
39994;SDS011;25686;51.908;10.418;2023-04-26T00:07:08;9.77;;;2.30;;
39994;SDS011;25686;51.908;10.418;2023-04-26T00:09:09;6.83;;;2.00;;
39994;SDS011;25686;51.908;10.418;2023-04-26T00:11:10;17.33;;;2.27;;
39994;SDS011;25686;51.908;10.418;2023-04-26T00:13:11;9.10;;;2.40;;
39994;SDS011;25686;51.908;10.418;2023-04-26T00:15:12;9.83;;;2.10;;
39994;SDS011;25686;51.908;10.418;2023-04-26T00:17:13;9.93;;;2.30;;
39994;SDS011;25686;51.908;10.418;2023-04-26T00:19:14;8.40;;;1.97;;
39994;SDS011;25686;51.908;10.418;2023-04-26T00:21:16;14.20;;;2.57;;
39994;SDS011;25686;51.908;10.418;2023-04-26T00:23:17;9.63;;;2.07;;
39994;SDS011;25686;51.908;10.418;2023-04-26T00:25:18;12.23;;;2.13;;
39994;SDS011;25686;51.908;10.418;2023-04-26T00:27:19;7.57;;;2.30;;
39994;SDS011;25686;51.908;10.418;2023-04-26T00:29:20;11.47;;;2.03;;
39994;SDS011;25686;51.908;10.418;2023-04-26T00:31:21;13.00;;;2.50;;
39994;SDS011;25686;51.908;10.418;2023-04-26T00:33:22;13.60;;;2.50;;
39994;SDS011;25686;51.908;10.418;2023-04-26T00:35:23;7.27;;;2.33;;
39994;SDS011;25686;51.908;10.418;2023-04-26T00:37:24;9.63;;;2.30;;
39994;SDS011;25686;51.908;10.418;2023-04-26T00:39:25;12.97;;;2.50;;
39994;SDS011;25686;51.908;10.418;2023-04-26T00:41:26;10.10;;;2.77;;
39994;SDS011;25686;51.908;10.418;2023-04-26T00:43:27;12.20;;;2.67;;
39994;SDS011;25686;51.908;10.418;2023-04-26T00:45:29;9.70;;;2.40;;
39994;SDS011;25686;51.908;10.418;2023-04-26T00:47:30;9.67;;;2.77;;
39994;SDS011;25686;51.908;10.418;2023-04-26T00:49:31;8.53;;;2.30;;
39994;SDS011;25686;51.908;10.418;2023-04-26T00:51:32;13.23;;;2.80;;
39994;SDS011;25686;51.908;10.418;2023-04-26T00:53:34;16.27;;;2.50;;
39994;SDS011;25686;51.908;10.418;2023-04-26T00:55:35;7.70;;;2.67;;
39994;SDS011;25686;51.908;10.418;2023-04-26T00:57:37;9.63;;;2.60;;
39994;SDS011;25686;51.908;10.418;2023-04-26T00:59:38;11.23;;;2.80;;
39994;SDS011;25686;51.908;10.418;2023-04-26T01:01:40;10.20;;;3.00;;
39994;SDS011;25686;51.908;10.418;2023-04-26T01:03:41;13.63;;;2.80;;
39994;SDS011;25686;51.908;10.418;2023-04-26T01:05:44;11.27;;;2.80;;
39994;SDS011;25686;51.908;10.418;2023-04-26T01:07:45;13.37;;;2.60;;
39994;SDS011;25686;51.908;10.418;2023-04-26T01:09:47;7.40;;;2.90;;
39994;SDS011;25686;51.908;10.418;2023-04-26T01:11:48;14.60;;;2.60;;
39994;SDS011;25686;51.908;10.418;2023-04-26T01:13:50;8.00;;;2.53;;
39994;SDS011;25686;51.908;10.418;2023-04-26T01:15:51;15.70;;;3.00;;
39994;SDS011;25686;51.908;10.418;2023-04-26T01:17:53;11.33;;;2.70;;
39994;SDS011;25686;51.908;10.418;2023-04-26T01:19:54;16.27;;;3.07;;
39994;SDS011;25686;51.908;10.418;2023-04-26T01:21:55;11.13;;;2.73;;
39994;SDS011;25686;51.908;10.418;2023-04-26T01:23:57;13.33;;;3.00;;
39994;SDS011;25686;51.908;10.418;2023-04-26T01:25:57;14.63;;;3.23;;
39994;SDS011;25686;51.908;10.418;2023-04-26T01:27:58;11.57;;;2.87;;
39994;SDS011;25686;51.908;10.418;2023-04-26T01:29:59;9.33;;;2.43;;
39994;SDS011;25686;51.908;10.418;2023-04-26T01:32:00;11.90;;;2.77;;
39994;SDS011;25686;51.908;10.418;2023-04-26T01:34:01;12.53;;;2.70;;
39994;SDS011;25686;51.908;10.418;2023-04-26T01:36:05;8.93;;;2.70;;
39994;SDS011;25686;51.908;10.418;2023-04-26T01:38:07;12.53;;;3.13;;
39994;SDS011;25686;51.908;10.418;2023-04-26T01:40:08;11.37;;;2.87;;
39994;SDS011;25686;51.908;10.418;2023-04-26T01:42:10;12.43;;;3.03;;
39994;SDS011;25686;51.908;10.418;2023-04-26T01:44:11;11.40;;;2.80;;
39994;SDS011;25686;51.908;10.418;2023-04-26T01:46:12;14.57;;;3.10;;
39994;SDS011;25686;51.908;10.418;2023-04-26T01:48:13;12.30;;;2.83;;
39994;SDS011;25686;51.908;10.418;2023-04-26T01:50:14;12.90;;;2.93;;
39994;SDS011;25686;51.908;10.418;2023-04-26T01:52:14;12.07;;;2.70;;
39994;SDS011;25686;51.908;10.418;2023-04-26T01:54:15;12.57;;;3.07;;
39994;SDS011;25686;51.908;10.418;2023-04-26T01:56:16;16.70;;;2.90;;
39994;SDS011;25686;51.908;10.418;2023-04-26T01:58:17;12.20;;;3.13;;
39994;SDS011;25686;51.908;10.418;2023-04-26T02:00:18;16.53;;;3.10;;
39994;SDS011;25686;51.908;10.418;2023-04-26T02:02:19;12.13;;;2.77;;
39994;SDS011;25686;51.908;10.418;2023-04-26T02:04:20;14.80;;;3.27;;
39994;SDS011;25686;51.908;10.418;2023-04-26T02:06:23;11.37;;;3.27;;
39994;SDS011;25686;51.908;10.418;2023-04-26T02:08:23;12.63;;;3.10;;
39994;SDS011;25686;51.908;10.418;2023-04-26T02:10:24;14.70;;;2.70;;
39994;SDS011;25686;51.908;10.418;2023-04-26T02:12:25;14.33;;;3.40;;
39994;SDS011;25686;51.908;10.418;2023-04-26T02:14:26;13.13;;;2.80;;
39994;SDS011;25686;51.908;10.418;2023-04-26T02:16:27;12.73;;;2.83;;
39994;SDS011;25686;51.908;10.418;2023-04-26T02:18:28;12.87;;;2.73;;
39994;SDS011;25686;51.908;10.418;2023-04-26T02:20:29;11.33;;;2.63;;
39994;SDS011;25686;51.908;10.418;2023-04-26T02:22:30;9.53;;;2.80;;
39994;SDS011;25686;51.908;10.418;2023-04-26T02:24:31;9.43;;;3.20;;
39994;SDS011;25686;51.908;10.418;2023-04-26T02:26:32;14.97;;;3.07;;
39994;SDS011;25686;51.908;10.418;2023-04-26T02:28:33;11.03;;;2.77;;
39994;SDS011;25686;51.908;10.418;2023-04-26T02:30:34;12.33;;;3.33;;
39994;SDS011;25686;51.908;10.418;2023-04-26T02:32:35;10.77;;;2.73;;
39994;SDS011;25686;51.908;10.418;2023-04-26T02:34:36;14.57;;;2.73;;
39994;SDS011;25686;51.908;10.418;2023-04-26T02:36:37;16.10;;;3.23;;
39994;SDS011;25686;51.908;10.418;2023-04-26T02:38:38;16.33;;;2.97;;
39994;SDS011;25686;51.908;10.418;2023-04-26T02:40:40;17.13;;;2.97;;
39994;SDS011;25686;51.908;10.418;2023-04-26T02:42:41;12.33;;;3.10;;
39994;SDS011;25686;51.908;10.418;2023-04-26T02:44:42;14.87;;;3.40;;
39994;SDS011;25686;51.908;10.418;2023-04-26T02:46:43;18.87;;;3.17;;
39994;SDS011;25686;51.908;10.418;2023-04-26T02:48:44;11.70;;;3.67;;
39994;SDS011;25686;51.908;10.418;2023-04-26T02:50:45;14.27;;;3.20;;
39994;SDS011;25686;51.908;10.418;2023-04-26T02:52:46;15.67;;;3.70;;
39994;SDS011;25686;51.908;10.418;2023-04-26T02:54:47;11.60;;;3.20;;
39994;SDS011;25686;51.908;10.418;2023-04-26T02:56:48;10.80;;;3.43;;
39994;SDS011;25686;51.908;10.418;2023-04-26T02:58:49;13.53;;;3.40;;
39994;SDS011;25686;51.908;10.418;2023-04-26T03:00:50;15.00;;;3.27;;
39994;SDS011;25686;51.908;10.418;2023-04-26T03:02:53;17.07;;;3.67;;
39994;SDS011;25686;51.908;10.418;2023-04-26T03:04:54;13.17;;;3.57;;
39994;SDS011;25686;51.908;10.418;2023-04-26T03:06:55;13.53;;;3.67;;
39994;SDS011;25686;51.908;10.418;2023-04-26T03:08:56;16.37;;;3.70;;
39994;SDS011;25686;51.908;10.418;2023-04-26T03:10:57;13.77;;;3.80;;
39994;SDS011;25686;51.908;10.418;2023-04-26T03:12:58;23.37;;;4.97;;
39994;SDS011;25686;51.908;10.418;2023-04-26T03:14:59;14.37;;;3.70;;
39994;SDS011;25686;51.908;10.418;2023-04-26T03:17:02;14.43;;;3.60;;
39994;SDS011;25686;51.908;10.418;2023-04-26T03:19:03;18.83;;;3.90;;
39994;SDS011;25686;51.908;10.418;2023-04-26T03:21:04;14.97;;;4.30;;
39994;SDS011;25686;51.908;10.418;2023-04-26T03:23:05;15.60;;;4.40;;
39994;SDS011;25686;51.908;10.418;2023-04-26T03:25:06;14.30;;;4.30;;
39994;SDS011;25686;51.908;10.418;2023-04-26T03:27:08;16.83;;;4.07;;
39994;SDS011;25686;51.908;10.418;2023-04-26T03:29:09;11.27;;;3.83;;
39994;SDS011;25686;51.908;10.418;2023-04-26T03:31:11;16.67;;;4.47;;
39994;SDS011;25686;51.908;10.418;2023-04-26T03:33:12;13.63;;;3.57;;
39994;SDS011;25686;51.908;10.418;2023-04-26T03:35:13;12.97;;;4.10;;
39994;SDS011;25686;51.908;10.418;2023-04-26T03:37:14;14.10;;;4.80;;
39994;SDS011;25686;51.908;10.418;2023-04-26T03:39:15;13.47;;;4.00;;
39994;SDS011;25686;51.908;10.418;2023-04-26T03:41:16;13.33;;;4.97;;
39994;SDS011;25686;51.908;10.418;2023-04-26T03:43:17;13.37;;;4.30;;
39994;SDS011;25686;51.908;10.418;2023-04-26T03:45:18;15.03;;;4.73;;
39994;SDS011;25686;51.908;10.418;2023-04-26T03:47:19;13.83;;;4.20;;
39994;SDS011;25686;51.908;10.418;2023-04-26T03:49:20;14.20;;;4.80;;
39994;SDS011;25686;51.908;10.418;2023-04-26T03:51:21;16.57;;;4.13;;
39994;SDS011;25686;51.908;10.418;2023-04-26T03:53:22;15.80;;;4.00;;
39994;SDS011;25686;51.908;10.418;2023-04-26T03:55:23;20.73;;;4.27;;
39994;SDS011;25686;51.908;10.418;2023-04-26T03:57:24;19.70;;;4.33;;
39994;SDS011;25686;51.908;10.418;2023-04-26T03:59:25;13.00;;;4.43;;
39994;SDS011;25686;51.908;10.418;2023-04-26T04:01:26;14.00;;;4.27;;
39994;SDS011;25686;51.908;10.418;2023-04-26T04:03:27;17.77;;;4.20;;
39994;SDS011;25686;51.908;10.418;2023-04-26T04:05:29;16.33;;;4.83;;
39994;SDS011;25686;51.908;10.418;2023-04-26T04:07:30;14.67;;;4.17;;
39994;SDS011;25686;51.908;10.418;2023-04-26T04:09:34;18.40;;;4.80;;
39994;SDS011;25686;51.908;10.418;2023-04-26T04:11:35;15.27;;;4.77;;
39994;SDS011;25686;51.908;10.418;2023-04-26T04:13:36;10.63;;;4.10;;
39994;SDS011;25686;51.908;10.418;2023-04-26T04:15:37;15.50;;;4.37;;
39994;SDS011;25686;51.908;10.418;2023-04-26T04:17:37;13.50;;;4.30;;
39994;SDS011;25686;51.908;10.418;2023-04-26T04:19:38;15.50;;;4.07;;
39994;SDS011;25686;51.908;10.418;2023-04-26T04:21:39;13.43;;;4.50;;
39994;SDS011;25686;51.908;10.418;2023-04-26T04:23:42;19.53;;;4.90;;
39994;SDS011;25686;51.908;10.418;2023-04-26T04:25:43;13.57;;;4.43;;
39994;SDS011;25686;51.908;10.418;2023-04-26T04:27:44;17.27;;;4.00;;
39994;SDS011;25686;51.908;10.418;2023-04-26T04:29:45;16.20;;;4.27;;
39994;SDS011;25686;51.908;10.418;2023-04-26T04:31:46;13.17;;;4.67;;
39994;SDS011;25686;51.908;10.418;2023-04-26T04:33:47;18.67;;;4.50;;
39994;SDS011;25686;51.908;10.418;2023-04-26T04:35:48;15.97;;;4.40;;
39994;SDS011;25686;51.908;10.418;2023-04-26T04:37:49;12.13;;;4.43;;
39994;SDS011;25686;51.908;10.418;2023-04-26T04:39:53;16.87;;;4.73;;
39994;SDS011;25686;51.908;10.418;2023-04-26T04:41:55;20.50;;;4.60;;
39994;SDS011;25686;51.908;10.418;2023-04-26T04:43:57;16.57;;;4.33;;
39994;SDS011;25686;51.908;10.418;2023-04-26T04:45:59;17.53;;;4.30;;
39994;SDS011;25686;51.908;10.418;2023-04-26T04:48:00;11.80;;;4.50;;
39994;SDS011;25686;51.908;10.418;2023-04-26T04:50:07;10.93;;;4.10;;
39994;SDS011;25686;51.908;10.418;2023-04-26T04:52:08;10.80;;;4.30;;
39994;SDS011;25686;51.908;10.418;2023-04-26T04:54:12;13.27;;;4.50;;
39994;SDS011;25686;51.908;10.418;2023-04-26T04:56:13;15.90;;;3.53;;
39994;SDS011;25686;51.908;10.418;2023-04-26T04:58:17;15.10;;;3.87;;
39994;SDS011;25686;51.908;10.418;2023-04-26T05:00:18;17.37;;;4.20;;
39994;SDS011;25686;51.908;10.418;2023-04-26T05:02:19;14.73;;;3.90;;
39994;SDS011;25686;51.908;10.418;2023-04-26T05:04:20;17.67;;;4.13;;
39994;SDS011;25686;51.908;10.418;2023-04-26T05:06:21;12.67;;;3.80;;
39994;SDS011;25686;51.908;10.418;2023-04-26T05:08:22;13.00;;;3.87;;
39994;SDS011;25686;51.908;10.418;2023-04-26T05:10:22;12.57;;;3.80;;
39994;SDS011;25686;51.908;10.418;2023-04-26T05:12:23;15.30;;;4.40;;
39994;SDS011;25686;51.908;10.418;2023-04-26T05:14:24;15.07;;;3.97;;
39994;SDS011;25686;51.908;10.418;2023-04-26T05:16:25;15.60;;;3.77;;
39994;SDS011;25686;51.908;10.418;2023-04-26T05:18:26;21.60;;;3.90;;
39994;SDS011;25686;51.908;10.418;2023-04-26T05:20:27;10.07;;;3.97;;
39994;SDS011;25686;51.908;10.418;2023-04-26T05:22:28;13.60;;;3.30;;
39994;SDS011;25686;51.908;10.418;2023-04-26T05:24:29;12.60;;;3.63;;
39994;SDS011;25686;51.908;10.418;2023-04-26T05:26:30;12.70;;;3.43;;
39994;SDS011;25686;51.908;10.418;2023-04-26T05:28:31;16.17;;;4.07;;
39994;SDS011;25686;51.908;10.418;2023-04-26T05:30:33;9.63;;;3.17;;
39994;SDS011;25686;51.908;10.418;2023-04-26T05:32:34;12.70;;;3.47;;
39994;SDS011;25686;51.908;10.418;2023-04-26T05:34:35;10.37;;;3.33;;
39994;SDS011;25686;51.908;10.418;2023-04-26T05:36:37;7.70;;;3.60;;
39994;SDS011;25686;51.908;10.418;2023-04-26T05:38:38;12.63;;;3.40;;
39994;SDS011;25686;51.908;10.418;2023-04-26T05:40:40;11.77;;;3.53;;
39994;SDS011;25686;51.908;10.418;2023-04-26T05:42:41;12.40;;;3.70;;
39994;SDS011;25686;51.908;10.418;2023-04-26T05:44:41;14.60;;;3.20;;
39994;SDS011;25686;51.908;10.418;2023-04-26T05:46:42;13.03;;;3.20;;
39994;SDS011;25686;51.908;10.418;2023-04-26T05:48:43;11.83;;;3.23;;
39994;SDS011;25686;51.908;10.418;2023-04-26T05:50:45;16.20;;;3.20;;
39994;SDS011;25686;51.908;10.418;2023-04-26T05:52:45;10.77;;;2.73;;
39994;SDS011;25686;51.908;10.418;2023-04-26T05:54:46;13.43;;;3.20;;
39994;SDS011;25686;51.908;10.418;2023-04-26T05:56:47;13.37;;;3.10;;
39994;SDS011;25686;51.908;10.418;2023-04-26T05:58:48;12.17;;;2.90;;
39994;SDS011;25686;51.908;10.418;2023-04-26T06:00:49;14.97;;;3.00;;
39994;SDS011;25686;51.908;10.418;2023-04-26T06:02:50;13.67;;;3.27;;
39994;SDS011;25686;51.908;10.418;2023-04-26T06:04:51;14.50;;;3.20;;
39994;SDS011;25686;51.908;10.418;2023-04-26T06:06:52;16.83;;;3.20;;
39994;SDS011;25686;51.908;10.418;2023-04-26T06:08:53;13.48;;;3.25;;
39994;SDS011;25686;51.908;10.418;2023-04-26T06:10:54;14.88;;;2.83;;
39994;SDS011;25686;51.908;10.418;2023-04-26T06:12:55;16.67;;;2.80;;
39994;SDS011;25686;51.908;10.418;2023-04-26T06:14:56;17.55;;;3.00;;
39994;SDS011;25686;51.908;10.418;2023-04-26T06:16:57;12.98;;;2.70;;
39994;SDS011;25686;51.908;10.418;2023-04-26T06:18:58;10.57;;;2.50;;
39994;SDS011;25686;51.908;10.418;2023-04-26T06:20:59;12.13;;;2.90;;
39994;SDS011;25686;51.908;10.418;2023-04-26T06:23:00;13.32;;;2.40;;
39994;SDS011;25686;51.908;10.418;2023-04-26T06:25:01;10.98;;;2.80;;
39994;SDS011;25686;51.908;10.418;2023-04-26T06:27:02;11.68;;;2.42;;
39994;SDS011;25686;51.908;10.418;2023-04-26T06:29:03;9.50;;;2.97;;
39994;SDS011;25686;51.908;10.418;2023-04-26T06:31:04;12.65;;;2.83;;
39994;SDS011;25686;51.908;10.418;2023-04-26T06:33:04;8.90;;;2.33;;
39994;SDS011;25686;51.908;10.418;2023-04-26T06:35:05;9.48;;;2.67;;
39994;SDS011;25686;51.908;10.418;2023-04-26T06:37:06;7.85;;;2.58;;
39994;SDS011;25686;51.908;10.418;2023-04-26T06:39:07;9.10;;;2.78;;
39994;SDS011;25686;51.908;10.418;2023-04-26T06:41:08;10.25;;;2.95;;
39994;SDS011;25686;51.908;10.418;2023-04-26T06:43:09;10.73;;;2.80;;
39994;SDS011;25686;51.908;10.418;2023-04-26T06:45:10;8.38;;;2.25;;
39994;SDS011;25686;51.908;10.418;2023-04-26T06:47:11;15.13;;;2.70;;
39994;SDS011;25686;51.908;10.418;2023-04-26T06:49:13;9.77;;;2.50;;
39994;SDS011;25686;51.908;10.418;2023-04-26T06:51:14;10.20;;;2.80;;
39994;SDS011;25686;51.908;10.418;2023-04-26T06:53:15;13.82;;;2.75;;
39994;SDS011;25686;51.908;10.418;2023-04-26T06:55:16;12.63;;;2.70;;
39994;SDS011;25686;51.908;10.418;2023-04-26T06:57:17;9.98;;;2.55;;
39994;SDS011;25686;51.908;10.418;2023-04-26T06:59:18;15.50;;;3.00;;
39994;SDS011;25686;51.908;10.418;2023-04-26T07:01:19;12.30;;;2.63;;
39994;SDS011;25686;51.908;10.418;2023-04-26T07:03:20;15.20;;;3.25;;
39994;SDS011;25686;51.908;10.418;2023-04-26T07:05:22;9.00;;;2.30;;
39994;SDS011;25686;51.908;10.418;2023-04-26T07:07:22;12.68;;;2.83;;
39994;SDS011;25686;51.908;10.418;2023-04-26T07:09:23;9.57;;;2.70;;
39994;SDS011;25686;51.908;10.418;2023-04-26T07:11:25;11.23;;;2.60;;
39994;SDS011;25686;51.908;10.418;2023-04-26T07:13:26;11.90;;;2.78;;
39994;SDS011;25686;51.908;10.418;2023-04-26T07:15:27;12.00;;;2.60;;
39994;SDS011;25686;51.908;10.418;2023-04-26T07:17:28;13.40;;;3.08;;
39994;SDS011;25686;51.908;10.418;2023-04-26T07:19:29;12.63;;;3.42;;
39994;SDS011;25686;51.908;10.418;2023-04-26T07:21:30;12.10;;;3.30;;
39994;SDS011;25686;51.908;10.418;2023-04-26T07:23:31;14.05;;;2.90;;
39994;SDS011;25686;51.908;10.418;2023-04-26T07:25:32;8.05;;;2.47;;
39994;SDS011;25686;51.908;10.418;2023-04-26T07:27:33;11.32;;;2.60;;
39994;SDS011;25686;51.908;10.418;2023-04-26T07:29:34;11.02;;;2.45;;
39994;SDS011;25686;51.908;10.418;2023-04-26T07:31:35;5.90;;;2.10;;
39994;SDS011;25686;51.908;10.418;2023-04-26T07:33:36;12.25;;;2.13;;
39994;SDS011;25686;51.908;10.418;2023-04-26T07:35:37;11.93;;;2.38;;
39994;SDS011;25686;51.908;10.418;2023-04-26T07:37:38;9.45;;;2.22;;
39994;SDS011;25686;51.908;10.418;2023-04-26T07:39:39;8.90;;;2.17;;
39994;SDS011;25686;51.908;10.418;2023-04-26T07:41:40;9.40;;;2.38;;
39994;SDS011;25686;51.908;10.418;2023-04-26T07:43:41;7.35;;;2.20;;
39994;SDS011;25686;51.908;10.418;2023-04-26T07:45:42;9.25;;;2.10;;
39994;SDS011;25686;51.908;10.418;2023-04-26T07:47:43;10.13;;;2.00;;
39994;SDS011;25686;51.908;10.418;2023-04-26T07:49:44;8.18;;;2.30;;
39994;SDS011;25686;51.908;10.418;2023-04-26T07:51:45;7.55;;;2.33;;
39994;SDS011;25686;51.908;10.418;2023-04-26T07:53:47;11.25;;;2.65;;
39994;SDS011;25686;51.908;10.418;2023-04-26T07:55:51;9.55;;;2.42;;
39994;SDS011;25686;51.908;10.418;2023-04-26T07:57:52;8.65;;;2.50;;
39994;SDS011;25686;51.908;10.418;2023-04-26T07:59:53;10.68;;;2.28;;
39994;SDS011;25686;51.908;10.418;2023-04-26T08:01:54;7.05;;;2.30;;
39994;SDS011;25686;51.908;10.418;2023-04-26T08:03:54;7.13;;;1.90;;
39994;SDS011;25686;51.908;10.418;2023-04-26T08:05:55;8.25;;;2.00;;
39994;SDS011;25686;51.908;10.418;2023-04-26T08:07:57;6.63;;;2.13;;
39994;SDS011;25686;51.908;10.418;2023-04-26T08:10:00;10.38;;;2.30;;
39994;SDS011;25686;51.908;10.418;2023-04-26T08:12:02;7.15;;;2.20;;
39994;SDS011;25686;51.908;10.418;2023-04-26T08:14:03;8.90;;;2.10;;
39994;SDS011;25686;51.908;10.418;2023-04-26T08:16:05;6.75;;;1.95;;
39994;SDS011;25686;51.908;10.418;2023-04-26T08:18:06;7.80;;;1.90;;
39994;SDS011;25686;51.908;10.418;2023-04-26T08:20:07;5.15;;;1.88;;
39994;SDS011;25686;51.908;10.418;2023-04-26T08:22:08;6.97;;;1.83;;
39994;SDS011;25686;51.908;10.418;2023-04-26T08:24:09;7.85;;;1.98;;
39994;SDS011;25686;51.908;10.418;2023-04-26T08:26:10;11.82;;;2.50;;
39994;SDS011;25686;51.908;10.418;2023-04-26T08:28:11;8.68;;;2.10;;
39994;SDS011;25686;51.908;10.418;2023-04-26T08:30:13;11.40;;;2.30;;
39994;SDS011;25686;51.908;10.418;2023-04-26T08:32:14;7.35;;;2.00;;
39994;SDS011;25686;51.908;10.418;2023-04-26T08:34:15;9.07;;;2.10;;
39994;SDS011;25686;51.908;10.418;2023-04-26T08:36:16;6.20;;;2.10;;
39994;SDS011;25686;51.908;10.418;2023-04-26T08:38:17;8.48;;;2.13;;
39994;SDS011;25686;51.908;10.418;2023-04-26T08:40:21;5.65;;;2.05;;
39994;SDS011;25686;51.908;10.418;2023-04-26T08:42:26;9.40;;;1.90;;
39994;SDS011;25686;51.908;10.418;2023-04-26T08:44:27;7.63;;;2.10;;
39994;SDS011;25686;51.908;10.418;2023-04-26T08:46:28;6.45;;;1.85;;
39994;SDS011;25686;51.908;10.418;2023-04-26T08:48:30;7.65;;;1.83;;
39994;SDS011;25686;51.908;10.418;2023-04-26T08:50:33;5.88;;;1.95;;
39994;SDS011;25686;51.908;10.418;2023-04-26T08:52:36;12.32;;;2.10;;
39994;SDS011;25686;51.908;10.418;2023-04-26T08:54:38;6.45;;;1.65;;
39994;SDS011;25686;51.908;10.418;2023-04-26T08:56:39;8.57;;;1.90;;
39994;SDS011;25686;51.908;10.418;2023-04-26T08:58:43;12.45;;;1.80;;
39994;SDS011;25686;51.908;10.418;2023-04-26T09:00:44;12.10;;;1.90;;
39994;SDS011;25686;51.908;10.418;2023-04-26T09:02:48;7.47;;;1.90;;
39994;SDS011;25686;51.908;10.418;2023-04-26T09:04:51;7.00;;;1.63;;
39994;SDS011;25686;51.908;10.418;2023-04-26T09:06:52;5.05;;;1.77;;
39994;SDS011;25686;51.908;10.418;2023-04-26T09:08:54;9.77;;;1.92;;
39994;SDS011;25686;51.908;10.418;2023-04-26T09:10:55;7.30;;;1.63;;
39994;SDS011;25686;51.908;10.418;2023-04-26T09:12:57;5.32;;;1.70;;
39994;SDS011;25686;51.908;10.418;2023-04-26T09:14:58;5.72;;;1.92;;
39994;SDS011;25686;51.908;10.418;2023-04-26T09:17:00;6.85;;;1.85;;
39994;SDS011;25686;51.908;10.418;2023-04-26T09:19:01;10.52;;;2.30;;
39994;SDS011;25686;51.908;10.418;2023-04-26T09:21:03;9.02;;;1.95;;
39994;SDS011;25686;51.908;10.418;2023-04-26T09:23:05;4.45;;;2.03;;
39994;SDS011;25686;51.908;10.418;2023-04-26T09:25:07;7.38;;;1.80;;
39994;SDS011;25686;51.908;10.418;2023-04-26T09:27:08;5.22;;;1.80;;
39994;SDS011;25686;51.908;10.418;2023-04-26T09:29:16;7.40;;;1.80;;
39994;SDS011;25686;51.908;10.418;2023-04-26T09:31:36;9.32;;;2.10;;
39994;SDS011;25686;51.908;10.418;2023-04-26T09:33:42;5.80;;;1.58;;
39994;SDS011;25686;51.908;10.418;2023-04-26T09:35:57;3.60;;;1.30;;
39994;SDS011;25686;51.908;10.418;2023-04-26T09:38:11;6.30;;;1.63;;
39994;SDS011;25686;51.908;10.418;2023-04-26T09:40:19;7.05;;;1.92;;
39994;SDS011;25686;51.908;10.418;2023-04-26T09:42:20;8.85;;;1.70;;
39994;SDS011;25686;51.908;10.418;2023-04-26T09:44:22;6.18;;;1.80;;
39994;SDS011;25686;51.908;10.418;2023-04-26T09:46:23;4.53;;;1.30;;
39994;SDS011;25686;51.908;10.418;2023-04-26T09:48:31;6.43;;;1.40;;
39994;SDS011;25686;51.908;10.418;2023-04-26T09:50:33;6.43;;;1.40;;
39994;SDS011;25686;51.908;10.418;2023-04-26T09:52:43;5.35;;;1.30;;
39994;SDS011;25686;51.908;10.418;2023-04-26T09:54:48;4.55;;;1.27;;
39994;SDS011;25686;51.908;10.418;2023-04-26T09:56:59;4.35;;;1.48;;
39994;SDS011;25686;51.908;10.418;2023-04-26T09:59:00;6.00;;;1.40;;
39994;SDS011;25686;51.908;10.418;2023-04-26T10:01:04;5.53;;;1.88;;
39994;SDS011;25686;51.908;10.418;2023-04-26T10:03:07;10.80;;;1.95;;
39994;SDS011;25686;51.908;10.418;2023-04-26T10:05:08;7.00;;;2.00;;
39994;SDS011;25686;51.908;10.418;2023-04-26T10:07:10;6.70;;;2.28;;
39994;SDS011;25686;51.908;10.418;2023-04-26T10:09:11;6.00;;;2.00;;
39994;SDS011;25686;51.908;10.418;2023-04-26T10:11:12;6.85;;;1.85;;
39994;SDS011;25686;51.908;10.418;2023-04-26T10:13:14;7.88;;;2.05;;
39994;SDS011;25686;51.908;10.418;2023-04-26T10:15:15;7.82;;;1.70;;
39994;SDS011;25686;51.908;10.418;2023-04-26T10:17:18;6.60;;;1.73;;
39994;SDS011;25686;51.908;10.418;2023-04-26T10:19:22;5.07;;;1.80;;
39994;SDS011;25686;51.908;10.418;2023-04-26T10:21:27;5.43;;;1.60;;
39994;SDS011;25686;51.908;10.418;2023-04-26T10:23:30;6.80;;;1.98;;
39994;SDS011;25686;51.908;10.418;2023-04-26T10:25:35;9.38;;;2.13;;
39994;SDS011;25686;51.908;10.418;2023-04-26T10:55:00;6.35;;;2.17;;
39994;SDS011;25686;51.908;10.418;2023-04-26T10:57:01;7.15;;;2.33;;
39994;SDS011;25686;51.908;10.418;2023-04-26T10:59:06;6.45;;;1.95;;
39994;SDS011;25686;51.908;10.418;2023-04-26T11:01:08;10.40;;;2.00;;
39994;SDS011;25686;51.908;10.418;2023-04-26T11:03:12;9.93;;;2.00;;
39994;SDS011;25686;51.908;10.418;2023-04-26T11:07:36;5.72;;;1.52;;
39994;SDS011;25686;51.908;10.418;2023-04-26T11:11:50;5.40;;;1.60;;
39994;SDS011;25686;51.908;10.418;2023-04-26T11:13:54;5.88;;;1.67;;
39994;SDS011;25686;51.908;10.418;2023-04-26T11:15:59;4.03;;;1.58;;
39994;SDS011;25686;51.908;10.418;2023-04-26T11:18:04;6.05;;;1.83;;
39994;SDS011;25686;51.908;10.418;2023-04-26T11:20:08;5.88;;;1.98;;
39994;SDS011;25686;51.908;10.418;2023-04-26T11:22:10;12.38;;;1.90;;
39994;SDS011;25686;51.908;10.418;2023-04-26T11:24:13;5.82;;;1.83;;
39994;SDS011;25686;51.908;10.418;2023-04-26T11:26:14;7.25;;;1.60;;
39994;SDS011;25686;51.908;10.418;2023-04-26T11:28:17;7.13;;;1.77;;
39994;SDS011;25686;51.908;10.418;2023-04-26T11:30:18;8.20;;;2.10;;
39994;SDS011;25686;51.908;10.418;2023-04-26T11:32:20;8.90;;;2.10;;
39994;SDS011;25686;51.908;10.418;2023-04-26T11:34:21;4.82;;;1.80;;
39994;SDS011;25686;51.908;10.418;2023-04-26T11:36:23;3.92;;;1.73;;
39994;SDS011;25686;51.908;10.418;2023-04-26T11:38:24;6.15;;;2.10;;
39994;SDS011;25686;51.908;10.418;2023-04-26T11:40:26;4.93;;;1.70;;
39994;SDS011;25686;51.908;10.418;2023-04-26T11:42:27;6.45;;;1.80;;
39994;SDS011;25686;51.908;10.418;2023-04-26T11:44:30;5.20;;;1.90;;
39994;SDS011;25686;51.908;10.418;2023-04-26T11:46:30;4.18;;;1.73;;
39994;SDS011;25686;51.908;10.418;2023-04-26T11:48:32;4.72;;;1.90;;
39994;SDS011;25686;51.908;10.418;2023-04-26T11:50:34;5.18;;;1.73;;
39994;SDS011;25686;51.908;10.418;2023-04-26T11:52:36;5.82;;;1.90;;
39994;SDS011;25686;51.908;10.418;2023-04-26T11:54:37;3.72;;;1.92;;
39994;SDS011;25686;51.908;10.418;2023-04-26T11:56:38;4.13;;;1.80;;
39994;SDS011;25686;51.908;10.418;2023-04-26T11:58:39;5.70;;;2.13;;
39994;SDS011;25686;51.908;10.418;2023-04-26T12:00:59;6.18;;;1.80;;
39994;SDS011;25686;51.908;10.418;2023-04-26T12:03:06;8.65;;;1.83;;
39994;SDS011;25686;51.908;10.418;2023-04-26T12:05:19;3.55;;;1.73;;
39994;SDS011;25686;51.908;10.418;2023-04-26T12:07:20;6.32;;;1.70;;
39994;SDS011;25686;51.908;10.418;2023-04-26T12:09:22;4.45;;;1.98;;
39994;SDS011;25686;51.908;10.418;2023-04-26T12:11:23;4.70;;;1.88;;
39994;SDS011;25686;51.908;10.418;2023-04-26T12:13:24;7.93;;;2.00;;
39994;SDS011;25686;51.908;10.418;2023-04-26T12:15:29;7.70;;;2.10;;
39994;SDS011;25686;51.908;10.418;2023-04-26T12:17:30;4.55;;;1.92;;
39994;SDS011;25686;51.908;10.418;2023-04-26T12:19:31;5.30;;;1.92;;
39994;SDS011;25686;51.908;10.418;2023-04-26T12:21:39;5.13;;;1.98;;
39994;SDS011;25686;51.908;10.418;2023-04-26T12:23:41;3.78;;;1.70;;
39994;SDS011;25686;51.908;10.418;2023-04-26T12:25:53;3.80;;;1.40;;
39994;SDS011;25686;51.908;10.418;2023-04-26T12:27:55;9.55;;;2.33;;